• Join FlightAware (Why Join?)
  • Login
  • US Flag 
07:45PM EDT


 

Airport Tracker/Info


-or-


 

Live Flight TrackerFlight Track Log ✈ UAL262 ✈ 18-Jun-2013 ✈ KSEA - KIAD

Flight Track Log - Related Links

Times and Time Zones

All times are in EDT time to prevent confusion due to time zone crossing. See the UAL262 flight status page for this flight to view local times or setup timezone preferences in your user account.

Time Position Orientation Groundspeed Altitude Reporting Facility
EDT Latitude Longitude Course Direction KTS MPH feet Rate Location/Type
04:42AM 47.4314 -122.3125 179° South 165 190 1,300  Level Seattle Center
04:43AM 47.3733 -122.3117 179° South 184 212 3,100 1,560 Climbing Seattle Center
04:44AM 47.3256 -122.2953 167° South 235 270 4,300 2,220 Climbing Seattle Center
04:45AM 47.3283 -122.1936 88° East 268 308 7,100 2,700 Climbing Seattle Center
04:46AM 47.3500 -122.0858 73° East 276 318 9,800 1,680 Climbing Seattle Center
04:47AM 47.3772 -121.9642 72° East 327 376 10,500 900 Climbing Seattle Center
04:48AM 47.4094 -121.8147 72° East 382 440 11,700 1,560 Climbing Seattle Center
04:49AM 47.4286 -121.6542 80° East 397 457 13,700 1,740 Climbing Seattle Center
04:50AM 47.4161 -121.4897 96° East 401 461 15,300 1,680 Climbing Seattle Center
04:51AM 47.3706 -121.3306 113° Southeast 421 484 17,100 1,560 Climbing Seattle Center
04:52AM 47.3258 -121.1831 114° Southeast 420 483 18,500 1,500 Climbing Seattle Center
04:53AM 47.2850 -121.0208 110° East 426 490 20,100 1,260 Climbing Seattle Center
04:54AM 47.2969 -120.8297 85° East 446 513 21,100 1,080 Climbing Seattle Center
04:55AM 47.3067 -120.6436 86° East 454 522 22,300 1,080 Climbing Seattle Center
04:56AM 47.3186 -120.4564 85° East 460 529 23,300 1,620 Climbing Seattle Center
04:57AM 47.3239 -120.2742 87° East 448 516 25,600 2,280 Climbing Seattle Center
04:58AM 47.3322 -120.1069 86° East 413 475 27,900 1,740 Climbing Seattle Center
04:59AM 47.3408 -119.9383 86° East 413 475 29,100 1,200 Climbing Seattle Center
05:00AM 47.3483 -119.7753 86° East 402 463 30,400 1,260 Climbing Seattle Center
05:01AM 47.3547 -119.6142 87° East 397 457 31,700 1,200 Climbing Seattle Center
05:02AM 47.3622 -119.4558 86° East 389 448 32,900 780 Climbing Seattle Center
05:03AM 47.3692 -119.2972 86° East 389 448 33,300 540 Climbing Seattle Center
05:04AM 47.3756 -119.1364 87° East 393 452 34,000 600 Climbing Seattle Center
05:05AM 47.3808 -118.9728 87° East 399 459 34,500 360 Climbing Seattle Center
05:06AM 47.3872 -118.8078 87° East 405 466 34,800 240 Climbing Seattle Center
05:07AM 47.3931 -118.6414 87° East 407 468 35,000  Climbing Seattle Center
05:08AM 47.3983 -118.4792 87° East 399 459 34,900  Descending Seattle Center
05:09AM 47.4053 -118.3158 86° East 399 459 35,000  Climbing Seattle Center
05:10AM 47.4097 -118.1500 88° East 405 466 35,000 -60 Level Seattle Center
05:11AM 47.4147 -117.9858 87° East 403 464 34,900  Descending Seattle Center
05:12AM 47.4194 -117.8233 87° East 399 459 35,000  Climbing Seattle Center
05:13AM 47.4247 -117.6642 87° East 392 451 34,900 -60 Descending Seattle Center
05:14AM 47.4286 -117.5086 88° East 383 441 34,900  Level Seattle Center
05:15AM 47.4328 -117.3558 88° East 377 434 34,900  Level Seattle Center
05:16AM 47.4342 -117.2000 89° East 384 442 34,900  Level Seattle Center
05:17AM 47.4281 -117.0444 93° East 389 448 34,900  Level Seattle Center
05:18AM 47.4247 -116.8861 92° East 393 452 35,000  Climbing Seattle Center
05:19AM 47.4189 -116.7233 93° East 401 461 34,900  Descending Seattle Center
05:20AM 47.4139 -116.5553 92° East 410 472 35,000  Climbing Seattle Center
05:21AM 47.4094 -116.3828 92° East 420 483 35,000 -60 Level Seattle Center
05:22AM 47.4053 -116.2069 92° East 426 490 34,900 -60 Descending Seattle Center
05:23AM 47.4033 -116.0314 91° East 430 495 34,900  Level Seattle Center
05:24AM 47.3997 -115.8142 91° East 439 505 35,000  Climbing Seattle Center
05:25AM 47.3975 -115.6375 91° East 439 505 35,000 -60 Level Seattle Center
05:26AM 47.4011 -115.4550 88° East 444 511 34,900 -60 Descending Seattle Center
05:27AM 47.4025 -115.2761 89° East 439 505 34,900  Level Seattle Center
05:28AM 47.4044 -115.1011 89° East 432 497 35,000  Climbing Seattle Center
05:29AM 47.4067 -114.9275 89° East 427 491 34,900 -60 Descending Seattle Center
05:30AM 47.4072 -114.7494 90° East 433 498 34,900  Level Salt Lake Center
05:31AM 47.4081 -114.5733 90° East 433 498 34,900  Level Seattle Center
05:32AM 47.4086 -114.3967 90° East 434 499 34,900  Level Seattle Center
05:33AM 47.4097 -114.2203 89° East 434 499 34,900  Level Seattle Center
05:34AM 47.4092 -114.0433 90° East 434 499 34,900  Level Seattle Center
05:35AM 47.4094 -113.8650 90° East 437 503 34,900  Level Seattle Center
05:36AM 47.4094 -113.6839 90° East 442 509 35,000  Climbing Seattle Center
05:37AM 47.4092 -113.5031 90° East 444 511 35,000 -60 Level Salt Lake Center
05:38AM 47.4081 -113.3225 90° East 443 510 34,900  Descending Salt Lake Center
05:39AM 47.4069 -113.1425 90° East 441 507 35,000  Climbing Salt Lake Center
05:40AM 47.4050 -112.9617 91° East 442 509 34,900 -60 Descending Salt Lake Center
05:41AM 47.4031 -112.7561 91° East 443 510 34,900  Level Salt Lake Center
05:42AM 47.4017 -112.5758 91° East 442 509 34,900  Level Salt Lake Center
05:43AM 47.3983 -112.3933 91° East 445 512 34,900  Level Salt Lake Center
05:44AM 47.3964 -112.2111 91° East 447 514 34,900  Level Salt Lake Center
05:45AM 47.3931 -112.0278 91° East 450 518 35,000  Climbing Salt Lake Center
05:46AM 47.3897 -111.8450 91° East 449 517 34,900 -60 Descending Salt Lake Center
05:47AM 47.3869 -111.6639 91° East 447 514 34,900  Level Salt Lake Center
05:48AM 47.3825 -111.4819 92° East 449 517 34,900  Level Salt Lake Center
05:49AM 47.3783 -111.3008 92° East 450 518 34,900  Level Salt Lake Center
05:50AM 47.3742 -111.1192 92° East 452 520 34,900  Level Salt Lake Center
05:51AM 47.3703 -110.9367 92° East 452 520 34,900  Level Salt Lake Center
05:52AM 47.3650 -110.7528 92° East 453 521 35,000  Climbing Salt Lake Center
05:53AM 47.3594 -110.5675 92° East 454 522 34,900 -60 Descending Salt Lake Center
05:54AM 47.3542 -110.3806 92° East 458 527 34,900  Level Salt Lake Center
05:55AM 47.3472 -110.1928 93° East 461 531 34,900  Level Salt Lake Center
05:56AM 47.3406 -110.0053 93° East 460 529 34,900  Level Salt Lake Center
05:57AM 47.3342 -109.8186 93° East 459 528 34,900  Level Salt Lake Center
05:58AM 47.3272 -109.6292 93° East 463 533 34,900  Level Salt Lake Center
05:59AM 47.3192 -109.4392 94° East 466 536 34,900  Level Salt Lake Center
06:00AM 47.3111 -109.2500 94° East 465 535 34,900  Level Salt Lake Center
06:01AM 47.3036 -109.0639 93° East 459 528 34,900  Level Salt Lake Center
06:02AM 47.2961 -108.8786 93° East 456 525 34,900  Level Salt Lake Center
06:03AM 47.2886 -108.6917 93° East 458 527 34,900  Level Salt Lake Center
06:04AM 47.2822 -108.5042 93° East 460 529 34,900  Level Salt Lake Center
06:05AM 47.2697 -108.2781 95° East 462 532 35,000  Climbing Salt Lake Center
06:06AM 47.2603 -108.0897 94° East 463 533 35,000  Level Salt Lake Center
06:07AM 47.2497 -107.9008 95° East 464 534 35,000 -60 Level Salt Lake Center
06:08AM 47.2403 -107.7131 94° East 463 533 34,900 -60 Descending Salt Lake Center
06:09AM 47.2278 -107.5247 96° East 464 534 34,900  Level Salt Lake Center
06:10AM 47.2200 -107.3506 94° East 467 537 34,900  Level Salt Lake Center
06:11AM 47.2061 -107.1617 96° East 467 537 34,900  Level Salt Lake Center
06:12AM 47.1953 -106.9725 95° East 467 537 34,900  Level Salt Lake Center
06:13AM 47.1836 -106.7817 95° East 470 541 34,900  Level Salt Lake Center
06:14AM 47.1717 -106.5900 95° East 472 543 34,900  Level Salt Lake Center
06:15AM 47.1569 -106.3964 96° East 475 547 34,900  Level Salt Lake Center
06:16AM 47.1433 -106.2031 96° East 477 549 34,900  Level Salt Lake Center
06:17AM 47.1300 -106.0103 96° East 477 549 34,900  Level Salt Lake Center
06:18AM 47.1175 -105.8161 95° East 478 550 34,900  Level Salt Lake Center
06:19AM 47.1036 -105.6228 96° East 479 551 34,900  Level Salt Lake Center
06:20AM 47.0889 -105.4297 96° East 478 550 35,000  Climbing Salt Lake Center
06:21AM 47.0747 -105.2364 96° East 478 550 35,000 -60 Level Salt Lake Center
06:22AM 47.0603 -105.0428 96° East 479 551 34,900 -60 Descending Salt Lake Center
06:23AM 47.0444 -104.8497 97° East 480 552 34,900  Level Salt Lake Center
06:24AM 47.0267 -104.6178 96° East 481 554 35,000  Climbing Salt Lake Center
06:25AM 47.0108 -104.4242 97° East 481 554 34,900 -60 Descending Salt Lake Center
06:26AM 46.9942 -104.2317 97° East 481 554 34,900  Level Salt Lake Center
06:27AM 46.9772 -104.0389 97° East 481 554 34,900  Level Salt Lake Center
06:28AM 46.9608 -103.8464 97° East 481 554 34,900  Level Salt Lake Center
06:29AM 46.9439 -103.6531 97° East 481 554 34,900  Level Salt Lake Center
06:30AM 46.9356 -103.5392 96° East 480 552 34,900  Level Minneapolis Center
06:31AM 46.9178 -103.3486 98° East 478 550 34,900  Level Minneapolis Center
06:32AM 46.8992 -103.1569 98° East 479 551 34,900  Level Minneapolis Center
06:33AM 46.8811 -102.9644 98° East 479 551 34,900  Level Minneapolis Center
06:34AM 46.8625 -102.7700 98° East 484 557 34,900  Level Minneapolis Center
06:35AM 46.8369 -102.5789 101° East 484 557 34,900  Level Minneapolis Center
06:36AM 46.8103 -102.3869 101° East 484 557 34,900  Level Minneapolis Center
06:37AM 46.7836 -102.1961 101° East 484 557 34,900  Level Minneapolis Center
06:38AM 46.7567 -102.0042 102° East 484 557 34,900  Level Minneapolis Center
06:39AM 46.7283 -101.8122 102° East 485 558 34,900  Level Minneapolis Center
06:40AM 46.6975 -101.6178 103° East 488 562 35,000  Climbing Minneapolis Center
06:41AM 46.6667 -101.4244 103° East 489 563 35,000  Level Minneapolis Center
06:42AM 46.6400 -101.2214 101° East 495 570 35,000  Level Minneapolis Center
06:43AM 46.6158 -101.0633 102° East 500 575 35,000  Level Minneapolis Center
06:44AM 46.5792 -100.8303 103° East 495 570 35,000 -60 Level Minneapolis Center
06:45AM 46.5478 -100.6364 103° East 494 568 34,900  Descending Minneapolis Center
06:46AM 46.5167 -100.4386 103° East 498 573 35,000  Climbing Minneapolis Center
06:47AM 46.4850 -100.2411 103° East 501 577 35,000  Level Minneapolis Center
06:48AM 46.4539 -100.0408 103° East 506 582 35,000  Level Minneapolis Center
06:49AM 46.4208 -99.8414 103° East 507 583 35,000  Level Minneapolis Center
06:50AM 46.3869 -99.6422 104° East 508 585 35,000  Level Minneapolis Center
06:51AM 46.3542 -99.4411 103° East 511 588 35,000 -60 Level Minneapolis Center
06:52AM 46.3172 -99.2256 104° East 512 589 34,900 -60 Descending Minneapolis Center
06:53AM 46.2831 -99.0256 104° East 513 590 34,900  Level Minneapolis Center
06:54AM 46.2481 -98.8272 104° East 513 590 34,900  Level Minneapolis Center
06:55AM 46.2139 -98.6300 104° East 512 589 34,900  Level Minneapolis Center
06:56AM 46.1783 -98.4303 104° East 514 592 34,900  Level Minneapolis Center
06:57AM 46.1419 -98.2292 105° East 518 596 34,900  Level Minneapolis Center
06:58AM 46.1053 -98.0289 105° East 521 600 34,900  Level Minneapolis Center
06:59AM 46.0683 -97.8269 105° East 524 603 34,900  Level Minneapolis Center
07:00AM 46.0233 -97.5858 105° East 522 601 34,900  Level Minneapolis Center
07:01AM 45.9856 -97.3853 105° East 523 602 34,900  Level Minneapolis Center
07:02AM 45.9483 -97.1853 105° East 522 601 35,000  Climbing Minneapolis Center
07:03AM 45.9092 -96.9856 106° East 522 601 34,900  Descending Minneapolis Center
07:04AM 45.8728 -96.8017 106° East 521 600 35,000  Climbing Minneapolis Center
07:05AM 45.8342 -96.6025 105° East 520 598 35,000  Level Minneapolis Center
07:06AM 45.7958 -96.4031 105° East 520 598 35,000  Level Minneapolis Center
07:07AM 45.7564 -96.2053 106° East 517 595 35,000  Level Minneapolis Center
07:08AM 45.7158 -96.0086 106° East 516 594 35,000  Level Minneapolis Center
07:09AM 45.6669 -95.7686 106° East 521 600 35,000  Level Minneapolis Center
07:10AM 45.6267 -95.5697 106° East 522 601 35,000  Level Minneapolis Center
07:11AM 45.5856 -95.3708 106° East 522 601 35,000  Level Minneapolis Center
07:12AM 45.5431 -95.1722 107° East 523 602 35,000  Level Minneapolis Center
07:13AM 45.5081 -95.0058 107° East 525 604 35,000  Level Minneapolis Center
07:14AM 45.4575 -94.7697 107° East 521 600 35,000  Level Minneapolis Center
07:15AM 45.4147 -94.5744 107° East 520 598 35,000  Level Minneapolis Center
07:16AM 45.3728 -94.3806 107° East 516 594 35,000  Level Minneapolis Center
07:17AM 45.3294 -94.1856 107° East 518 596 35,000  Level Minneapolis Center
07:18AM 45.2869 -93.9919 107° East 516 594 35,000  Level Minneapolis Center
07:19AM 45.2439 -93.7992 108° East 515 593 35,000  Level Minneapolis Center
07:20AM 45.1997 -93.6078 108° East 512 589 35,000  Level Minneapolis Center
07:21AM 45.1572 -93.4172 107° East 507 583 35,000  Level Minneapolis Center
07:22AM 45.1108 -93.2283 109° East 504 580 35,000 -60 Level Minneapolis Center
07:23AM 45.0636 -93.0367 109° East 509 586 34,900  Descending Minneapolis Center
07:24AM 45.0158 -92.8439 109° East 514 592 35,000  Climbing Minneapolis Center
07:25AM 44.9675 -92.6544 110° East 512 589 35,000  Level Minneapolis Center
07:26AM 44.9206 -92.4678 109° East 505 581 35,000  Level Minneapolis Center
07:27AM 44.8719 -92.2814 110° East 506 582 35,000  Level Minneapolis Center
07:28AM 44.8256 -92.0947 109° East 506 582 35,000  Level Minneapolis Center
07:29AM 44.7769 -91.9103 110° East 506 582 35,000  Level Minneapolis Center
07:30AM 44.7267 -91.7261 111° Southeast 505 581 35,000  Level Minneapolis Center
07:31AM 44.6592 -91.5097 114° Southeast 504 580 35,000  Level Minneapolis Center
07:32AM 44.6022 -91.3303 114° Southeast 504 580 35,000  Level Minneapolis Center
07:33AM 44.5456 -91.1519 114° Southeast 504 580 35,000  Level Minneapolis Center
07:34AM 44.4911 -90.9733 113° Southeast 502 578 35,000  Level Minneapolis Center
07:35AM 44.4400 -90.8106 114° Southeast 500 575 35,000  Level Minneapolis Center
07:36AM 44.3728 -90.5992 114° Southeast 508 585 35,000  Level Minneapolis Center
07:37AM 44.3158 -90.4203 114° Southeast 505 581 35,000  Level Minneapolis Center
07:38AM 44.2572 -90.2397 114° Southeast 508 585 35,000  Level Minneapolis Center
07:39AM 44.1983 -90.0586 114° Southeast 511 588 35,000  Level Minneapolis Center
07:40AM 44.1392 -89.8778 114° Southeast 513 590 35,000  Level Minneapolis Center
07:41AM 44.1003 -89.7578 114° Southeast 513 590 35,000  Level Chicago Center
07:42AM 44.0300 -89.5475 115° Southeast 513 590 35,000  Level Chicago Center
07:43AM 43.9708 -89.3667 114° Southeast 514 592 35,000  Level Chicago Center
07:44AM 43.9083 -89.1850 115° Southeast 519 597 35,000  Level Chicago Center
07:45AM 43.8486 -89.0036 114° Southeast 516 594 35,000  Level Chicago Center
07:46AM 43.7867 -88.8222 115° Southeast 519 597 35,000  Level Chicago Center
07:47AM 43.7258 -88.6428 115° Southeast 514 592 35,000  Level Chicago Center
07:48AM 43.6631 -88.4592 115° Southeast 518 596 35,000  Level Chicago Center
07:49AM 43.5978 -88.2769 116° Southeast 520 598 35,000  Level Chicago Center
07:50AM 43.5339 -88.0950 116° Southeast 520 598 35,000  Level Chicago Center
07:51AM 43.4558 -87.8886 117° Southeast 518 596 35,000  Level Chicago Center
07:52AM 43.3844 -87.7158 120° Southeast 518 596 35,000  Level Chicago Center
07:54AM 43.3136 -87.5431 119° Southeast 518 596 35,000  Level Chicago Center
07:55AM 43.2442 -87.3719 119° Southeast 514 592 35,000  Level Chicago Center
07:56AM 43.1744 -87.2019 119° Southeast 515 593 35,000  Level Chicago Center
07:57AM 43.1031 -87.0319 120° Southeast 517 595 35,000  Level Chicago Center
07:58AM 43.0328 -86.8622 119° Southeast 517 595 35,000  Level Chicago Center
07:59AM 42.9461 -86.6600 120° Southeast 518 596 35,000  Level Chicago Center
08:00AM 42.8744 -86.4922 120° Southeast 517 595 35,000  Level Chicago Center
08:01AM 42.8028 -86.3261 120° Southeast 516 594 35,000  Level Chicago Center
08:02AM 42.7319 -86.1597 120° Southeast 516 594 35,000  Level Chicago Center
08:03AM 42.6656 -85.9917 118° Southeast 513 590 35,000  Level Chicago Center
08:04AM 42.5992 -85.7806 113° Southeast 513 590 35,000  Level Chicago Center
08:05AM 42.5414 -85.6053 114° Southeast 514 592 35,000  Level Chicago Center
08:06AM 42.4839 -85.4278 114° Southeast 516 594 35,000  Level Chicago Center
08:07AM 42.4269 -85.2525 114° Southeast 514 592 35,000  Level Chicago Center
08:08AM 42.3694 -85.0772 114° Southeast 513 590 35,000  Level Chicago Center
08:09AM 42.3108 -84.9028 114° Southeast 512 589 35,000  Level Chicago Center
08:10AM 42.2408 -84.6928 114° Southeast 513 590 35,000  Level Chicago Center
08:11AM 42.1825 -84.5200 114° Southeast 511 588 35,000  Level Chicago Center
08:12AM 42.1239 -84.3461 114° Southeast 511 588 35,000  Level Chicago Center
08:13AM 42.0792 -84.2342 118° Southeast 510 587 35,000  Level Cleveland Center
08:14AM 42.0197 -84.0631 115° Southeast 510 587 35,000  Level Cleveland Center
08:15AM 41.9433 -83.8969 122° Southeast 515 593 35,000  Level Cleveland Center
08:16AM 41.8622 -83.7394 125° Southeast 515 593 35,000  Level Cleveland Center
08:17AM 41.7811 -83.5767 124° Southeast 520 598 35,000  Level Cleveland Center
08:18AM 41.7017 -83.4200 124° Southeast 520 598 35,000  Level Cleveland Center
08:19AM 41.6136 -83.2689 128° Southeast 520 598 35,000  Level Cleveland Center
08:20AM 41.5375 -83.1297 126° Southeast 515 593 35,000  Level Cleveland Center
08:21AM 41.4511 -82.9850 129° Southeast 515 593 35,000  Level Cleveland Center
08:22AM 41.3586 -82.8211 127° Southeast 515 593 35,000  Level Cleveland Center
08:23AM 41.2697 -82.6717 128° Southeast 510 587 35,000  Level Cleveland Center
08:24AM 41.1828 -82.5200 127° Southeast 510 587 35,000  Level Cleveland Center
08:25AM 41.0953 -82.3767 129° Southeast 510 587 35,000  Level Cleveland Center
08:26AM 41.0081 -82.2258 127° Southeast 510 587 35,000  Level Cleveland Center
08:27AM 40.9203 -82.0781 128° Southeast 515 593 35,000  Level Cleveland Center
08:28AM 40.8325 -81.9278 128° Southeast 515 593 35,000  Level Cleveland Center
08:29AM 40.7447 -81.7808 128° Southeast 520 598 35,000  Level Cleveland Center
08:30AM 40.6586 -81.6342 128° Southeast 515 593 35,000  Level Cleveland Center
08:31AM 40.5681 -81.4850 129° Southeast 520 598 35,000  Level Cleveland Center
08:32AM 40.4817 -81.3392 128° Southeast 515 593 35,000  Level Cleveland Center
08:33AM 40.3950 -81.1936 128° Southeast 515 593 35,000  Level Cleveland Center
08:34AM 40.3039 -81.0486 129° Southeast 515 593 35,000  Level Cleveland Center
08:35AM 40.2147 -80.9039 129° Southeast 515 593 35,000  Level Cleveland Center
08:36AM 40.1275 -80.7622 129° Southeast 515 593 35,000  Level Cleveland Center
08:37AM 40.0400 -80.6211 129° Southeast 510 587 35,000 -60 Level Cleveland Center
08:38AM 39.9544 -80.4828 129° Southeast 499 574 34,900 -540 Descending Cleveland Center
08:39AM 39.8667 -80.3425 129° Southeast 499 574 34,000 -960 Descending Cleveland Center
08:40AM 39.7747 -80.1994 130° Southeast 499 574 33,000 -1,020 Descending Cleveland Center
08:42AM 39.6008 -79.9144 128° Southeast 533 613 31,000 -960 Descending Washington Center
08:43AM 39.5381 -79.7383 115° Southeast 538 619 30,100 -1,620 Descending Washington Center
08:44AM 39.5028 -79.5533 104° East 531 611 27,800 -1,620 Descending Washington Center
08:45AM 39.4714 -79.3636 102° East 537 618 26,900 -1,020 Descending Washington Center
08:46AM 39.4339 -79.1572 103° East 553 636 25,800 -1,500 Descending Washington Center
08:47AM 39.4053 -78.9947 103° East 510 587 24,000 -2,460 Descending Washington Center
08:48AM 39.3761 -78.8431 104° East 461 531 20,800 -3,000 Descending Washington Center
08:49AM 39.3506 -78.7022 103° East 424 488 18,200 -2,520 Descending Washington Center
08:50AM 39.3303 -78.5942 104° East 406 467 15,900 -2,700 Descending Washington Center
08:51AM 39.3028 -78.4400 103° East 375 432 12,800 -2,220 Descending Washington Center
08:52AM 39.2681 -78.3233 111° Southeast 357 411 11,500 -1,140 Descending Washington Center
08:53AM 39.2139 -78.2275 126° Southeast 341 392 10,600 -1,140 Descending Washington Center
08:54AM 39.1658 -78.1347 124° Southeast 323 372 9,300 -840 Descending Washington Center
08:55AM 39.1178 -78.0447 125° Southeast 312 359 9,000 -240 Descending Washington Center
08:56AM 39.0675 -77.9550 126° Southeast 307 353 8,900 -540 Descending Washington Center
08:57AM 39.0272 -77.8736 122° Southeast 307 353 8,000 -1,020 Descending Washington Center
08:58AM 38.9769 -77.7786 124° Southeast 307 353 6,900 -960 Descending Washington Center
08:59AM 38.9597 -77.6844 103° East 291 335 6,100 -600 Descending Washington Center
08:59AM 38.9333 -77.6167 117° Southeast 287 330 6,000 -120 Descending Potomac TRACON
09:00AM 38.8667 -77.5833 159° South 266 306 6,000 -480 Level Potomac TRACON
09:01AM 38.8167 -77.5667 165° South 240 276 5,100 -1,080 Descending Potomac TRACON
09:02AM 38.7500 -77.5500 169° South 242 278 4,000 -1,140 Descending Potomac TRACON